Time;durP1;ratioP1;P1;durP2;ratioP2;P2;SDS_P1;SDS_P2;PMS_P1;PMS_P2;Temp;Humidity;BMP_temperature;BMP_pressure;BME280_temperature;BME280_humidity;BME280_pressure;Samples;Min_cycle;Max_cycle;Signal;HPM_P1;HPM_P2
2022/09/23 00:00:39;;;;;;;25.37;11.50;;;12.70;53.50;;;;;;4972042;28;20187;-71
2022/09/23 00:03:05;;;;;;;37.73;17.90;;;12.60;58.80;;;;;;4970749;28;20180;-70
2022/09/23 00:05:31;;;;;;;46.27;16.13;;;12.50;62.90;;;;;;4972295;28;20164;-70
2022/09/23 00:07:58;;;;;;;39.80;14.57;;;12.60;67.50;;;;;;4972074;28;20525;-71
2022/09/23 00:10:26;;;;;;;47.43;19.43;;;12.60;67.70;;;;;;4972002;28;20636;-71
2022/09/23 00:12:54;;;;;;;51.77;20.60;;;12.60;71.60;;;;;;4971504;28;20663;-70
2022/09/23 00:15:19;;;;;;;57.07;18.77;;;12.60;69.90;;;;;;4971846;28;20172;-71
2022/09/23 00:17:46;;;;;;;46.70;17.17;;;12.60;65.40;;;;;;4971490;28;20768;-70
2022/09/23 00:20:12;;;;;;;51.47;18.93;;;12.60;64.90;;;;;;4971872;28;20187;-70
2022/09/23 00:22:40;;;;;;;38.83;15.87;;;12.60;66.20;;;;;;4971842;28;20227;-70
2022/09/23 00:25:08;;;;;;;26.97;14.37;;;12.60;69.90;;;;;;4971991;28;20619;-70
2022/09/23 00:27:34;;;;;;;29.90;14.37;;;12.60;73.30;;;;;;4971497;28;20168;-71
2022/09/23 00:30:00;;;;;;;43.33;16.07;;;12.60;72.40;;;;;;4971715;28;20177;-70
2022/09/23 00:32:26;;;;;;;27.33;12.07;;;12.50;74.40;;;;;;4971610;28;20172;-72
2022/09/23 00:34:52;;;;;;;52.90;19.23;;;12.40;76.40;;;;;;4970512;28;20624;-70
2022/09/23 00:37:19;;;;;;;27.17;12.50;;;12.40;81.70;;;;;;4971706;28;20268;-70
2022/09/23 00:39:45;;;;;;;33.33;14.97;;;12.30;87.50;;;;;;4971621;28;20540;-70
2022/09/23 00:42:15;;;;;;;51.63;19.60;;;12.20;92.40;;;;;;4971131;28;20172;-70
2022/09/23 00:44:50;;;;;;;48.10;18.00;;;12.30;95.40;;;;;;4971655;28;20252;-70
2022/09/23 00:47:24;;;;;;;32.90;14.60;;;12.40;93.60;;;;;;4971564;28;20184;-70
2022/09/23 00:50:04;;;;;;;44.37;17.13;;;12.40;91.40;;;;;;4972752;28;20175;-70
2022/09/23 00:52:31;;;;;;;39.70;16.97;;;12.50;90.20;;;;;;4975024;28;20529;-70
2022/09/23 00:54:58;;;;;;;39.13;16.90;;;12.50;84.40;;;;;;4974483;28;20266;-70
2022/09/23 00:57:26;;;;;;;42.73;14.50;;;12.50;80.50;;;;;;4974625;28;20733;-70
2022/09/23 00:59:51;;;;;;;25.90;12.47;;;12.40;77.80;;;;;;4974824;28;20305;-70
2022/09/23 01:02:19;;;;;;;36.23;14.30;;;12.40;75.70;;;;;;4974769;28;20254;-70
2022/09/23 01:04:48;;;;;;;46.53;16.70;;;12.30;78.70;;;;;;4974900;28;20164;-71
2022/09/23 01:07:14;;;;;;;145.27;52.03;;;12.20;82.30;;;;;;4974547;28;20175;-70
2022/09/23 01:09:39;;;;;;;179.53;63.77;;;12.20;84.50;;;;;;4974524;28;20541;-70
2022/09/23 01:12:17;;;;;;;47.67;20.97;;;12.10;88.80;;;;;;4974606;28;20179;-70
2022/09/23 01:15:14;;;;;;;28.10;14.00;;;12.20;90.20;;;;;;4974721;28;20176;-69
2022/09/23 01:17:46;;;;;;;32.07;16.77;;;12.30;89.40;;;;;;4972608;28;20684;-69
2022/09/23 01:20:47;;;;;;;24.50;11.60;;;12.40;84.30;;;;;;4974509;28;20225;-70
2022/09/23 01:23:51;;;;;;;27.87;12.53;;;12.40;74.50;;;;;;4974385;28;20655;-71
2022/09/23 01:26:29;;;;;;;23.50;11.43;;;12.50;68.40;;;;;;4973105;28;20294;-70
2022/09/23 01:29:25;;;;;;;25.87;12.77;;;12.50;64.40;;;;;;4974459;28;20651;-70
2022/09/23 01:32:13;;;;;;;30.00;14.03;;;12.50;61.00;;;;;;4973088;28;20180;-70
2022/09/23 01:35:30;;;;;;;22.07;11.43;;;12.50;56.90;;;;;;4973044;28;20187;-70
2022/09/23 01:38:14;;;;;;;15.67;10.73;;;12.60;57.00;;;;;;4998006;28;20212;-70
2022/09/23 01:40:58;;;;;;;19.57;11.40;;;12.60;53.60;;;;;;5014314;28;20170;-70
2022/09/23 01:43:56;;;;;;;26.07;11.90;;;12.60;52.20;;;;;;4982031;28;20199;-70
2022/09/23 01:46:34;;;;;;;22.90;12.43;;;12.50;52.70;;;;;;4973993;28;20176;-70
2022/09/23 01:49:14;;;;;;;21.57;10.67;;;12.50;51.90;;;;;;4973983;28;20222;-70
2022/09/23 01:51:48;;;;;;;16.97;9.77;;;12.50;53.90;;;;;;4972738;28;20176;-69
2022/09/23 01:54:37;;;;;;;17.90;10.17;;;12.40;52.50;;;;;;4973698;28;20651;-69
2022/09/23 01:57:13;;;;;;;18.50;10.20;;;12.40;53.40;;;;;;4972639;28;20211;-70
2022/09/23 01:59:49;;;;;;;17.97;9.60;;;12.40;51.70;;;;;;4973943;28;20209;-69
2022/09/23 02:02:31;;;;;;;15.43;9.87;;;12.40;50.30;;;;;;4972693;28;20175;-70
2022/09/23 02:05:22;;;;;;;14.40;9.40;;;12.50;47.20;;;;;;4973867;28;20246;-70
2022/09/23 02:08:12;;;;;;;16.87;10.30;;;12.50;45.30;;;;;;4973374;28;20179;-70
2022/09/23 02:10:45;;;;;;;14.43;9.20;;;12.50;43.40;;;;;;4973764;28;20168;-70
2022/09/23 02:13:27;;;;;;;12.37;9.80;;;12.40;44.90;;;;;;4973786;28;20190;-69
2022/09/23 02:15:56;;;;;;;13.57;9.47;;;12.40;44.70;;;;;;4973595;28;20180;-70
2022/09/23 02:18:31;;;;;;;14.67;9.50;;;12.50;41.10;;;;;;4973333;28;20690;-70
2022/09/23 02:21:05;;;;;;;15.03;10.03;;;12.50;42.10;;;;;;4973580;28;20171;-69
2022/09/23 02:23:49;;;;;;;15.10;10.73;;;12.40;41.70;;;;;;4973181;28;20175;-70
2022/09/23 02:26:27;;;;;;;14.17;9.23;;;12.20;51.00;;;;;;4973430;28;20168;-70
2022/09/23 02:29:25;;;;;;;11.90;9.43;;;12.20;55.50;;;;;;4972280;28;20207;-70
2022/09/23 02:32:26;;;;;;;11.30;9.43;;;12.20;55.40;;;;;;4988602;28;20658;-70
2022/09/23 02:35:21;;;;;;;14.40;9.07;;;12.10;55.20;;;;;;5002993;28;20322;-69
2022/09/23 02:38:15;;;;;;;14.57;9.50;;;12.00;56.50;;;;;;4973058;28;20291;-70
2022/09/23 02:40:41;;;;;;;13.70;9.23;;;12.10;54.10;;;;;;4998511;28;20188;-70
2022/09/23 02:43:22;;;;;;;13.53;9.13;;;12.00;53.80;;;;;;4972970;28;20509;-70
2022/09/23 02:45:48;;;;;;;12.53;8.47;;;12.00;55.10;;;;;;4971867;28;20642;-69
2022/09/23 02:48:24;;;;;;;14.37;9.07;;;12.00;57.00;;;;;;4971972;28;20353;-70
2022/09/23 02:50:49;;;;;;;12.20;8.90;;;12.00;59.50;;;;;;4972684;28;20258;-71
2022/09/23 02:53:16;;;;;;;11.80;8.80;;;12.10;58.50;;;;;;4973145;28;20611;-70
2022/09/23 02:55:42;;;;;;;12.60;8.37;;;12.10;55.00;;;;;;4972105;28;20535;-70
2022/09/23 02:58:10;;;;;;;12.87;9.57;;;12.10;56.30;;;;;;4972698;28;20306;-71
2022/09/23 03:00:48;;;;;;;15.63;9.23;;;12.20;54.30;;;;;;4973040;28;20175;-70
2022/09/23 03:03:52;;;;;;;10.23;8.73;;;12.20;52.90;;;;;;4972930;28;20520;-70
2022/09/23 03:06:30;;;;;;;13.33;9.30;;;12.10;51.20;;;;;;4972642;28;20628;-69
2022/09/23 03:09:07;;;;;;;13.17;9.13;;;12.10;53.90;;;;;;4973069;28;20179;-69
2022/09/23 03:11:37;;;;;;;14.03;9.70;;;12.00;53.90;;;;;;4972958;28;20206;-69
2022/09/23 03:14:24;;;;;;;14.80;9.10;;;11.90;55.40;;;;;;4972409;28;20211;-70
2022/09/23 03:17:00;;;;;;;17.10;9.23;;;12.00;58.10;;;;;;4971278;28;20231;-70
2022/09/23 03:19:28;;;;;;;15.27;8.43;;;11.90;66.00;;;;;;4972472;28;20261;-70
2022/09/23 03:22:20;;;;;;;16.70;8.43;;;11.70;69.20;;;;;;4972048;28;20180;-70
2022/09/23 03:24:47;;;;;;;14.33;8.53;;;11.80;74.00;;;;;;4972445;28;20615;-69
2022/09/23 03:27:17;;;;;;;12.60;8.13;;;11.80;69.10;;;;;;4972584;28;20245;-70
2022/09/23 03:29:46;;;;;;;10.40;7.97;;;11.80;62.70;;;;;;4972195;28;20713;-70
2022/09/23 03:32:17;;;;;;;14.37;7.70;;;11.80;61.50;;;;;;4971214;28;20202;-70
2022/09/23 03:34:48;;;;;;;12.47;8.07;;;11.90;63.30;;;;;;4972093;28;20182;-70
2022/09/23 03:37:20;;;;;;;14.00;8.10;;;12.00;58.40;;;;;;4971035;28;20257;-70
2022/09/23 03:40:04;;;;;;;13.17;8.40;;;12.00;55.10;;;;;;4970753;28;20199;-70
2022/09/23 03:42:31;;;;;;;10.57;8.23;;;11.90;59.90;;;;;;4972135;28;20225;-70
2022/09/23 03:44:57;;;;;;;9.20;8.10;;;11.70;72.90;;;;;;4971970;28;20160;-70
2022/09/23 03:47:27;;;;;;;12.10;8.50;;;11.70;73.50;;;;;;4972107;28;20203;-70
2022/09/23 03:49:53;;;;;;;14.60;8.00;;;11.70;71.30;;;;;;4970186;28;20171;-70
2022/09/23 03:52:21;;;;;;;16.37;8.80;;;11.60;74.40;;;;;;4971847;28;20191;-70
2022/09/23 03:54:46;;;;;;;13.63;8.50;;;11.60;80.40;;;;;;4970232;28;20636;-69
2022/09/23 03:57:13;;;;;;;13.80;8.43;;;11.50;82.00;;;;;;4971823;28;20311;-70
2022/09/23 03:59:39;;;;;;;15.23;8.63;;;11.60;87.00;;;;;;4971712;28;20172;-70
2022/09/23 04:02:06;;;;;;;16.00;8.23;;;11.70;87.50;;;;;;4971908;28;20183;-70
2022/09/23 04:04:33;;;;;;;13.23;8.83;;;11.80;82.70;;;;;;4971076;28;20167;-69
2022/09/23 04:06:59;;;;;;;13.97;8.73;;;12.00;78.10;;;;;;4971424;28;20179;-70
2022/09/23 04:09:25;;;;;;;12.57;7.83;;;12.10;71.90;;;;;;4971317;28;20211;-70
2022/09/23 04:11:51;;;;;;;21.47;8.80;;;12.10;62.60;;;;;;4970259;28;20286;-69
2022/09/23 04:14:18;;;;;;;12.87;8.73;;;12.10;65.70;;;;;;4971679;28;20244;-70
2022/09/23 04:16:44;;;;;;;14.60;9.13;;;12.20;67.30;;;;;;4969552;28;20236;-70
2022/09/23 04:19:11;;;;;;;17.80;9.13;;;12.30;63.60;;;;;;4971551;28;20179;-71
2022/09/23 04:21:37;;;;;;;13.60;8.70;;;12.30;58.00;;;;;;4971612;28;20168;-70
2022/09/23 04:24:03;;;;;;;13.70;8.83;;;12.20;56.90;;;;;;4970497;28;20187;-70
2022/09/23 04:26:31;;;;;;;15.37;8.53;;;12.10;59.50;;;;;;4971416;28;20235;-70
2022/09/23 04:28:57;;;;;;;17.13;9.10;;;12.10;64.90;;;;;;4971583;28;20566;-70
2022/09/23 04:31:23;;;;;;;18.47;8.90;;;12.10;66.80;;;;;;4971214;28;20180;-70
2022/09/23 04:33:49;;;;;;;20.43;9.40;;;12.10;63.70;;;;;;4970875;28;20176;-69
2022/09/23 04:36:15;;;;;;;21.87;9.40;;;12.10;66.50;;;;;;4971554;28;20168;-71
2022/09/23 04:38:45;;;;;;;14.47;8.50;;;12.10;63.80;;;;;;4971170;28;20590;-70
2022/09/23 04:41:12;;;;;;;20.47;9.53;;;12.10;57.50;;;;;;4970912;28;20172;-70
2022/09/23 04:43:38;;;;;;;15.67;9.13;;;12.10;62.60;;;;;;4971219;28;20179;-70
2022/09/23 04:46:06;;;;;;;18.47;9.00;;;12.20;67.40;;;;;;4970895;28;20255;-70
2022/09/23 04:48:32;;;;;;;14.47;8.57;;;12.20;64.30;;;;;;4970584;28;20262;-69
2022/09/23 04:51:03;;;;;;;16.33;9.33;;;12.20;64.10;;;;;;4970732;28;20172;-71
2022/09/23 04:53:28;;;;;;;15.37;8.97;;;12.20;72.10;;;;;;4970487;28;20215;-70
2022/09/23 04:55:59;;;;;;;16.77;9.53;;;12.20;71.20;;;;;;4970990;28;20207;-71
2022/09/23 04:58:24;;;;;;;22.33;8.73;;;12.20;68.50;;;;;;4970856;28;20232;-71
2022/09/23 05:00:50;;;;;;;23.70;9.60;;;12.20;65.00;;;;;;4970869;28;20635;-71
2022/09/23 05:03:15;;;;;;;15.77;8.77;;;12.10;67.10;;;;;;4970680;28;20532;-70
2022/09/23 05:05:41;;;;;;;20.90;9.30;;;12.10;68.10;;;;;;4969053;28;20180;-70
2022/09/23 05:08:07;;;;;;;17.10;8.93;;;12.10;63.20;;;;;;4970401;28;20185;-70
2022/09/23 05:10:32;;;;;;;16.90;9.47;;;12.30;57.80;;;;;;4970205;28;20168;-70
2022/09/23 05:12:58;;;;;;;19.70;9.43;;;12.30;55.40;;;;;;4970239;28;20180;-71
2022/09/23 05:15:23;;;;;;;22.43;9.63;;;12.40;53.60;;;;;;4969060;28;20188;-71
2022/09/23 05:17:49;;;;;;;17.23;9.23;;;12.40;50.20;;;;;;4969283;28;20235;-70
2022/09/23 05:20:16;;;;;;;17.63;9.13;;;12.60;45.10;;;;;;4969970;28;20628;-70
2022/09/23 05:22:41;;;;;;;18.77;9.27;;;12.70;35.90;;;;;;4969964;28;20249;-70
2022/09/23 05:25:07;;;;;;;20.13;8.77;;;12.80;27.70;;;;;;4970085;28;20531;-71
2022/09/23 05:27:33;;;;;;;18.60;9.60;;;12.80;25.10;;;;;;4969413;28;20176;-70
2022/09/23 05:29:59;;;;;;;20.03;10.10;;;12.90;17.70;;;;;;4968117;28;20233;-70
2022/09/23 05:32:25;;;;;;;23.10;10.80;;;12.90;1.00;;;;;;4969148;28;20172;-70
2022/09/23 05:34:53;;;;;;;23.53;12.30;;;12.90;1.00;;;;;;4969950;28;20176;-71
2022/09/23 05:37:19;;;;;;;23.77;10.87;;;12.90;1.00;;;;;;4973153;28;20238;-70
2022/09/23 05:39:44;;;;;;;24.53;10.67;;;13.00;1.00;;;;;;4972725;28;20558;-71
2022/09/23 05:42:11;;;;;;;24.90;10.80;;;13.10;1.00;;;;;;4972303;28;20267;-70
2022/09/23 05:44:38;;;;;;;22.33;10.70;;;13.00;1.00;;;;;;4972342;28;20199;-71
2022/09/23 05:47:03;;;;;;;25.23;11.77;;;13.10;1.00;;;;;;4972438;28;20184;-69
2022/09/23 05:49:29;;;;;;;24.87;11.23;;;13.10;1.00;;;;;;4972899;28;20594;-70
2022/09/23 05:51:55;;;;;;;21.20;10.90;;;13.10;1.00;;;;;;4971700;28;20546;-70
2022/09/23 05:54:21;;;;;;;26.87;11.33;;;13.10;1.00;;;;;;4972137;28;20752;-70
2022/09/23 05:56:46;;;;;;;24.20;12.07;;;13.10;1.00;;;;;;4971805;28;20687;-71
2022/09/23 05:59:12;;;;;;;26.57;11.87;;;13.00;1.00;;;;;;4971886;28;20180;-71
2022/09/23 06:01:38;;;;;;;22.90;11.50;;;13.10;1.00;;;;;;4972542;28;20172;-71
2022/09/23 06:04:05;;;;;;;26.53;12.03;;;13.10;1.00;;;;;;4972322;28;20627;-70
2022/09/23 06:06:41;;;;;;;22.37;12.20;;;13.30;1.00;;;;;;4971228;28;20538;-70
2022/09/23 06:09:12;;;;;;;28.93;12.60;;;13.30;1.00;;;;;;4972911;28;20229;-70
2022/09/23 06:11:38;;;;;;;29.93;12.27;;;13.50;1.00;;;;;;4972654;28;20198;-71
2022/09/23 06:14:04;;;;;;;32.53;12.57;;;13.70;1.00;;;;;;4972042;28;20504;-71
2022/09/23 06:16:31;;;;;;;30.00;18.33;;;13.90;1.00;;;;;;4970585;28;20219;-73
2022/09/23 06:18:59;;;;;;;30.00;14.37;;;14.00;1.00;;;;;;4972178;28;20202;-69
2022/09/23 06:21:25;;;;;;;27.90;15.67;;;14.20;1.00;;;;;;4971586;28;20214;-71
2022/09/23 06:23:50;;;;;;;23.03;11.57;;;14.30;1.00;;;;;;4972034;28;20231;-70
2022/09/23 06:26:16;;;;;;;36.73;13.37;;;14.40;1.00;;;;;;4972290;28;20530;-70
2022/09/23 06:28:43;;;;;;;23.80;11.47;;;14.60;1.00;;;;;;4971123;28;20183;-70
2022/09/23 06:31:12;;;;;;;24.37;11.27;;;14.80;1.00;;;;;;4971819;28;20171;-70
2022/09/23 06:33:38;;;;;;;24.23;10.17;;;15.00;1.00;;;;;;4971917;28;20169;-70
2022/09/23 06:36:05;;;;;;;22.10;11.83;;;15.20;1.00;;;;;;4971874;28;20512;-70
2022/09/23 06:38:34;;;;;;;22.47;12.33;;;15.50;1.00;;;;;;4972214;28;20248;-70
2022/09/23 06:41:02;;;;;;;28.40;13.40;;;15.60;99.90;;;;;;4971201;28;20168;-71
2022/09/23 06:43:28;;;;;;;29.43;14.00;;;15.70;1.00;;;;;;4970225;28;20187;-71
2022/09/23 06:45:55;;;;;;;34.10;15.17;;;16.10;99.90;;;;;;4972093;28;20177;-70
2022/09/23 06:48:22;;;;;;;30.17;15.77;;;16.40;99.90;;;;;;4971192;28;20218;-71
2022/09/23 06:50:48;;;;;;;29.57;17.00;;;16.80;1.00;;;;;;4971766;28;20168;-71
2022/09/23 06:53:14;;;;;;;30.77;16.63;;;17.10;1.00;;;;;;4971037;28;20202;-70
2022/09/23 06:55:40;;;;;;;33.77;17.23;;;17.50;5.00;;;;;;4971708;28;20168;-70
2022/09/23 06:58:07;;;;;;;28.97;16.43;;;17.50;99.90;;;;;;4971135;28;20642;-70
2022/09/23 07:00:34;;;;;;;38.87;16.40;;;17.60;99.90;;;;;;4971373;28;20169;-71
2022/09/23 07:02:59;;;;;;;30.40;16.83;;;17.80;29.70;;;;;;4971722;28;20200;-69
2022/09/23 07:05:25;;;;;;;30.93;16.03;;;17.70;1.00;;;;;;4971666;28;20208;-69
2022/09/23 07:07:52;;;;;;;26.70;15.97;;;17.50;1.00;;;;;;4971391;28;20235;-69
2022/09/23 07:10:18;;;;;;;23.77;13.80;;;17.40;99.90;;;;;;4980282;28;20219;-70
2022/09/23 07:12:43;;;;;;;26.93;14.47;;;17.40;1.00;;;;;;4964931;28;20216;-70
2022/09/23 07:15:10;;;;;;;27.77;14.43;;;17.30;99.90;;;;;;4990235;28;20521;-71
2022/09/23 07:17:35;;;;;;;27.70;14.07;;;17.40;15.30;;;;;;5029167;28;20224;-70
2022/09/23 07:20:02;;;;;;;22.33;12.50;;;17.40;1.00;;;;;;5073429;28;20179;-70
2022/09/23 07:22:28;;;;;;;21.47;12.67;;;17.50;99.90;;;;;;5011219;28;20179;-70
2022/09/23 07:24:56;;;;;;;23.73;12.60;;;17.60;1.00;;;;;;5001458;28;20718;-70
2022/09/23 07:27:26;;;;;;;24.50;12.63;;;17.60;99.90;;;;;;4989734;28;20265;-70
2022/09/23 07:29:51;;;;;;;25.37;12.90;;;17.70;1.00;;;;;;4978023;28;20211;-70
2022/09/23 07:32:19;;;;;;;27.17;13.40;;;17.80;1.00;;;;;;5017850;28;20587;-69
2022/09/23 07:34:45;;;;;;;18.23;11.07;;;18.00;1.00;;;;;;5025497;28;20175;-70
2022/09/23 07:37:12;;;;;;;21.43;11.47;;;17.60;1.00;;;;;;5050471;28;20204;-70
2022/09/23 07:39:38;;;;;;;22.00;11.47;;;17.60;1.00;;;;;;5004268;28;20182;-70
2022/09/23 07:42:05;;;;;;;20.17;11.27;;;17.50;19.00;;;;;;5047845;28;20179;-69
2022/09/23 07:44:31;;;;;;;21.83;11.33;;;17.40;99.90;;;;;;5028436;28;20634;-69
2022/09/23 07:46:58;;;;;;;17.47;10.47;;;17.40;1.00;;;;;;5039924;28;20264;-69
2022/09/23 07:49:24;;;;;;;18.13;10.20;;;17.20;85.50;;;;;;4994990;28;20231;-70
2022/09/23 07:51:51;;;;;;;18.23;10.03;;;17.30;1.00;;;;;;5054967;28;20203;-69
2022/09/23 07:54:17;;;;;;;17.93;10.37;;;17.40;99.90;;;;;;5020592;28;20164;-70
2022/09/23 07:56:44;;;;;;;19.97;10.30;;;17.60;1.00;;;;;;5025364;28;20242;-70
2022/09/23 07:59:17;;;;;;;20.00;10.60;;;17.80;1.00;;;;;;5049336;28;20175;-71
2022/09/23 08:01:45;;;;;;;15.03;9.90;;;18.00;99.90;;;;;;4992600;28;20175;-71
2022/09/23 08:04:31;;;;;;;16.73;9.90;;;18.20;1.00;;;;;;4990025;28;20205;-70
2022/09/23 08:07:00;;;;;;;18.93;10.13;;;18.30;1.00;;;;;;4989189;28;20179;-71
2022/09/23 08:09:30;;;;;;;13.87;8.97;;;18.40;1.00;;;;;;4990111;28;20184;-70
2022/09/23 08:11:56;;;;;;;15.32;9.00;;;18.40;1.00;;;;;;4989188;28;20191;-71
2022/09/23 08:14:22;;;;;;;15.85;9.88;;;18.60;1.00;;;;;;4989974;28;20171;-70
2022/09/23 08:16:48;;;;;;;13.32;8.50;;;18.70;1.00;;;;;;4988194;28;20223;-70
2022/09/23 08:19:15;;;;;;;15.18;8.93;;;18.90;99.90;;;;;;4970254;28;20229;-70
2022/09/23 08:21:41;;;;;;;24.02;9.30;;;19.20;99.90;;;;;;4970493;28;20168;-70
2022/09/23 08:24:18;;;;;;;13.27;8.38;;;19.50;99.90;;;;;;5002224;28;20182;-70
2022/09/23 08:26:45;;;;;;;11.32;8.00;;;19.90;1.00;;;;;;4969662;28;20175;-71
2022/09/23 08:29:13;;;;;;;15.98;8.05;;;19.80;86.50;;;;;;4973278;28;20237;-71
2022/09/23 08:31:39;;;;;;;17.40;8.75;;;20.10;85.80;;;;;;4970171;28;20694;-71
2022/09/23 08:34:05;;;;;;;14.90;8.63;;;20.10;85.30;;;;;;4970199;28;20180;-71
2022/09/23 08:36:31;;;;;;;14.45;8.35;;;20.00;84.90;;;;;;4970562;28;20637;-72
2022/09/23 08:38:57;;;;;;;16.40;8.40;;;20.10;83.60;;;;;;4969643;28;20241;-71
2022/09/23 08:41:53;;;;;;;18.48;8.85;;;19.90;84.80;;;;;;4969766;28;20592;-71
2022/09/23 08:44:29;;;;;;;11.18;7.72;;;20.00;84.70;;;;;;4970408;28;20194;-70
2022/09/23 08:47:03;;;;;;;15.00;8.52;;;20.40;83.50;;;;;;4970613;28;20179;-71
2022/09/23 08:49:46;;;;;;;17.85;9.43;;;20.70;82.00;;;;;;4973153;28;20215;-72
2022/09/23 08:52:42;;;;;;;16.13;8.68;;;21.10;83.40;;;;;;4989621;28;20209;-71
2022/09/23 08:55:12;;;;;;;15.80;8.73;;;21.80;78.70;;;;;;4989211;28;20190;-71
2022/09/23 08:57:47;;;;;;;18.02;9.57;;;22.30;75.10;;;;;;4988665;28;20226;-71
2022/09/23 09:00:34;;;;;;;12.85;8.00;;;22.60;74.00;;;;;;4990057;28;20171;-72
2022/09/23 09:03:00;;;;;;;13.55;7.55;;;22.50;71.20;;;;;;4989636;28;20266;-71
2022/09/23 09:05:27;;;;;;;10.63;7.35;;;22.20;73.50;;;;;;4983949;28;20229;-71
2022/09/23 09:07:57;;;;;;;13.13;7.70;;;22.00;73.80;;;;;;4989281;28;20519;-71
2022/09/23 09:10:27;;;;;;;16.05;8.30;;;21.80;75.70;;;;;;4989758;28;20186;-71
2022/09/23 09:13:09;;;;;;;21.52;9.25;;;22.00;75.20;;;;;;4992461;28;20167;-73
2022/09/23 09:15:50;;;;;;;12.00;7.15;;;22.70;73.40;;;;;;4993207;28;20175;-72
2022/09/23 09:18:19;;;;;;;14.25;7.40;;;22.90;71.70;;;;;;4997107;28;20724;-72
2022/09/23 09:21:12;;;;;;;12.18;7.47;;;22.50;72.90;;;;;;5062732;28;20177;-72
2022/09/23 09:23:45;;;;;;;17.55;7.70;;;22.30;72.40;;;;;;4963456;28;20308;-73
2022/09/23 09:26:29;;;;;;;15.25;8.02;;;22.50;73.70;;;;;;5033940;28;20240;-71
2022/09/23 09:29:27;;;;;;;14.45;7.70;;;22.50;74.90;;;;;;5008101;28;20202;-72
2022/09/23 09:31:52;;;;;;;14.13;8.10;;;22.80;73.20;;;;;;4968034;28;20182;-72
2022/09/23 09:34:42;;;;;;;16.60;7.57;;;22.50;72.10;;;;;;5038275;28;20173;-73
2022/09/23 09:37:26;;;;;;;16.20;6.88;;;22.40;74.30;;;;;;5006008;28;20210;-72
2022/09/23 09:39:51;;;;;;;11.88;6.68;;;22.50;73.40;;;;;;5043567;28;20175;-71
2022/09/23 09:42:25;;;;;;;14.82;7.13;;;23.10;73.00;;;;;;5036674;28;20707;-72
2022/09/23 09:45:03;;;;;;;14.45;7.72;;;23.60;70.60;;;;;;5009653;28;20224;-72
2022/09/23 09:47:45;;;;;;;14.93;8.18;;;24.10;69.10;;;;;;4961602;28;20221;-72
2022/09/23 09:50:19;;;;;;;13.70;7.10;;;24.20;66.90;;;;;;5032530;28;20165;-72
2022/09/23 09:52:45;;;;;;;12.13;7.13;;;24.00;66.70;;;;;;5013103;28;20654;-71
2022/09/23 09:55:13;;;;;;;14.25;7.13;;;24.40;66.70;;;;;;4984871;28;20183;-71
2022/09/23 09:57:48;;;;;;;11.88;6.90;;;24.60;65.70;;;;;;5048965;28;20630;-72
2022/09/23 10:00:26;;;;;;;8.90;6.40;;;24.70;66.00;;;;;;5034355;28;20298;-74
2022/09/23 10:03:23;;;;;;;11.60;7.05;;;24.60;64.40;;;;;;5007562;28;20798;-73
2022/09/23 10:05:52;;;;;;;11.38;6.88;;;24.70;65.50;;;;;;4972320;28;20187;-72
2022/09/23 10:08:31;;;;;;;8.77;6.63;;;24.70;65.60;;;;;;5037626;28;20643;-73
2022/09/23 10:11:04;;;;;;;10.05;6.80;;;25.00;64.60;;;;;;5005593;28;20217;-72
2022/09/23 10:13:30;;;;;;;12.18;7.00;;;25.10;64.30;;;;;;4961534;28;20209;-74
2022/09/23 10:15:58;;;;;;;8.50;6.25;;;25.20;63.90;;;;;;5024904;28;20211;-74
2022/09/23 10:18:36;;;;;;;10.90;6.30;;;25.20;64.80;;;;;;5024240;28;20254;-74
2022/09/23 10:21:08;;;;;;;9.48;6.22;;;25.70;62.60;;;;;;5058995;28;20259;-74
2022/09/23 10:23:40;;;;;;;11.20;6.40;;;26.10;61.80;;;;;;5011281;28;20237;-74
2022/09/23 10:26:07;;;;;;;13.90;6.72;;;26.90;59.50;;;;;;5060107;28;20202;-75
2022/09/23 10:28:46;;;;;;;11.60;6.68;;;27.10;99.90;;;;;;4984304;28;20609;-72
2022/09/23 10:31:15;;;;;;;8.98;6.97;;;26.90;99.90;;;;;;5091113;28;20177;-73
2022/09/23 10:34:03;;;;;;;9.98;6.07;;;26.60;99.90;;;;;;5047038;28;20164;-74
2022/09/23 10:36:30;;;;;;;9.15;6.78;;;25.90;99.90;;;;;;5021431;28;20308;-73
2022/09/23 10:46:37;;;;;;;12.93;6.07;;;25.80;99.90;;;;;;5091199;28;20609;-72
2022/09/23 10:48:07;;;;;;;7.57;6.30;;;25.90;99.90;;;;;;4967130;28;20218;-73
2022/09/23 10:50:36;;;;;;;10.40;5.80;;;26.10;99.90;;;;;;5043209;28;20207;-73
2022/09/23 10:53:22;;;;;;;7.25;5.30;;;26.10;99.90;;;;;;5005346;28;20225;-74
2022/09/23 10:56:11;;;;;;;12.02;5.68;;;26.10;99.90;;;;;;5043995;28;20537;-74
2022/09/23 10:58:54;;;;;;;7.43;4.70;;;25.90;99.90;;;;;;4959432;28;20710;-74
2022/09/23 11:01:29;;;;;;;6.47;4.22;;;25.60;99.90;;;;;;4952991;28;20682;-72
2022/09/23 11:04:15;;;;;;;8.98;5.00;;;24.90;99.90;;;;;;5011128;28;20623;-75
2022/09/23 11:07:10;;;;;;;7.90;5.63;;;24.80;99.90;;;;;;5027923;28;20183;-76
2022/09/23 11:09:44;;;;;;;17.23;8.85;;;24.20;99.90;;;;;;4952766;28;20262;-74
2022/09/23 11:12:43;;;;;;;15.10;8.02;;;24.10;99.90;;;;;;5004437;28;20168;-75
2022/09/23 11:15:13;;;;;;;25.85;16.73;;;23.40;1.00;;;;;;4973309;28;20172;-73
2022/09/23 11:18:01;;;;;;;12.00;7.18;;;23.20;1.00;;;;;;5043826;28;20247;-69
2022/09/23 11:20:36;;;;;;;9.05;5.57;;;22.60;99.90;;;;;;5013528;28;20228;-72
2022/09/23 11:23:10;;;;;;;7.57;5.20;;;22.30;1.00;;;;;;4971670;28;20726;-73
2022/09/23 11:25:39;;;;;;;11.73;6.00;;;22.40;1.00;;;;;;4958037;28;20195;-74
2022/09/23 11:28:36;;;;;;;8.98;5.38;;;22.50;1.00;;;;;;4976639;28;20623;-75
2022/09/23 11:31:05;;;;;;;9.57;5.53;;;22.70;99.90;;;;;;4972670;28;20214;-72
2022/09/23 11:34:00;;;;;;;8.45;5.00;;;22.80;1.00;;;;;;4997115;28;20157;-71
2022/09/23 11:36:55;;;;;;;7.93;5.30;;;22.40;1.00;;;;;;4975197;28;20189;-72
2022/09/23 11:39:38;;;;;;;6.68;4.43;;;22.30;1.00;;;;;;5056799;28;20248;-75
2022/09/23 11:42:12;;;;;;;9.77;6.43;;;22.20;99.90;;;;;;4989989;28;20206;-74
2022/09/23 11:44:58;;;;;;;11.65;6.35;;;22.70;1.00;;;;;;5045496;28;20176;-78
2022/09/23 11:47:32;;;;;;;9.63;5.13;;;22.80;1.00;;;;;;5056665;28;20718;-73
2022/09/23 11:50:28;;;;;;;6.75;4.43;;;22.50;1.00;;;;;;4980083;28;20638;-73
2022/09/23 11:53:18;;;;;;;5.22;4.28;;;22.50;1.00;;;;;;4982521;28;20218;-73
2022/09/23 11:55:53;;;;;;;6.10;4.00;;;22.20;99.90;;;;;;5006189;28;20168;-73
2022/09/23 11:58:24;;;;;;;7.30;4.45;;;22.30;99.90;;;;;;5040315;28;20211;-75
2022/09/23 12:01:01;;;;;;;7.35;4.53;;;22.10;99.90;;;;;;5070348;28;20666;-71
2022/09/23 12:03:52;;;;;;;4.95;4.28;;;22.40;99.90;;;;;;5019574;28;20190;-71
2022/09/23 12:06:25;;;;;;;8.30;4.30;;;22.30;99.90;;;;;;4987002;28;20213;-73
2022/09/23 12:09:00;;;;;;;7.28;4.50;;;22.50;99.90;;;;;;5050180;28;20173;-72
2022/09/23 12:11:45;;;;;;;5.75;4.20;;;22.90;1.00;;;;;;4974781;28;20172;-72
2022/09/23 12:14:20;;;;;;;5.82;3.92;;;22.90;1.00;;;;;;5023809;28;20597;-72
2022/09/23 12:17:13;;;;;;;4.63;4.10;;;22.70;7.00;;;;;;5050872;28;20204;-74
2022/09/23 12:19:46;;;;;;;8.18;4.75;;;22.90;1.00;;;;;;4977655;28;20673;-71
2022/09/23 12:22:35;;;;;;;8.85;4.63;;;22.90;1.00;;;;;;4992620;28;20167;-72
2022/09/23 12:25:32;;;;;;;7.40;5.00;;;22.40;1.00;;;;;;4996159;28;20171;-72
2022/09/23 12:28:11;;;;;;;9.13;5.88;;;22.10;1.00;;;;;;4992266;28;20199;-71
2022/09/23 12:30:37;;;;;;;6.47;5.47;;;22.20;1.00;;;;;;5019702;28;20172;-73
2022/09/23 12:33:21;;;;;;;6.47;4.82;;;22.20;99.90;;;;;;5003161;28;20187;-72
2022/09/23 12:35:47;;;;;;;6.80;4.68;;;22.00;1.00;;;;;;5021655;28;20171;-71
2022/09/23 12:38:31;;;;;;;5.57;4.18;;;21.50;1.00;;;;;;4992312;28;20338;-75
2022/09/23 12:40:56;;;;;;;7.75;4.45;;;21.30;1.00;;;;;;4995244;28;20258;-77
2022/09/23 12:43:34;;;;;;;5.95;4.82;;;21.50;1.00;;;;;;5001887;28;20255;-76
2022/09/23 12:46:35;;;;;;;6.10;4.70;;;21.50;1.00;;;;;;5103788;28;20525;-75
2022/09/23 12:49:02;;;;;;;8.25;4.80;;;21.80;1.00;;;;;;4962279;28;20262;-77
2022/09/23 12:51:35;;;;;;;5.13;4.35;;;21.80;1.00;;;;;;4973334;28;20223;-72
2022/09/23 12:54:03;;;;;;;6.43;4.35;;;21.80;1.00;;;;;;4938661;28;20279;-72
2022/09/23 12:56:35;;;;;;;7.97;4.72;;;21.90;1.00;;;;;;4943158;28;20219;-70
2022/09/23 12:59:15;;;;;;;7.32;4.90;;;21.80;99.90;;;;;;4949959;28;20672;-75
2022/09/23 13:01:41;;;;;;;10.27;4.25;;;21.80;96.40;;;;;;4952556;28;20180;-74
2022/09/23 13:07:16;;;;;;;7.88;4.68;;;21.70;99.90;;;;;;4981066;28;20184;-74
2022/09/23 13:09:47;;;;;;;8.60;4.28;;;21.80;1.00;;;;;;4953814;28;20678;-73
2022/09/23 13:12:23;;;;;;;5.20;4.68;;;22.00;1.00;;;;;;4953854;29;20262;-74
2022/09/23 13:14:52;;;;;;;8.45;4.82;;;22.20;99.90;;;;;;4953869;28;20187;-73
2022/09/23 13:17:33;;;;;;;9.27;4.60;;;22.30;1.00;;;;;;4954415;28;20254;-73